Map

Track Data

SID SEASON NUMBER BASIN SUBBASIN NAME ISO_TIME NATURE LAT LON WMO_WIND WMO_PRES WMO_AGENCY TRACK_TYPE DIST2LAND LANDFALL IFLAG USA_AGENCY USA_ATCF_ID USA_LAT USA_LON USA_RECORD USA_STATUS USA_WIND USA_PRES USA_SSHS USA_R34_NE USA_R34_SE USA_R34_SW USA_R34_NW USA_R50_NE USA_R50_SE USA_R50_SW USA_R50_NW USA_R64_NE USA_R64_SE USA_R64_SW USA_R64_NW USA_POCI USA_ROCI USA_RMW USA_EYE TOKYO_LAT TOKYO_LON TOKYO_GRADE TOKYO_WIND TOKYO_PRES TOKYO_R50_DIR TOKYO_R50_LONG TOKYO_R50_SHORT TOKYO_R30_DIR TOKYO_R30_LONG TOKYO_R30_SHORT TOKYO_LAND CMA_LAT CMA_LON CMA_CAT CMA_WIND CMA_PRES HKO_LAT HKO_LON HKO_CAT HKO_WIND HKO_PRES NEWDELHI_LAT NEWDELHI_LON NEWDELHI_GRADE NEWDELHI_WIND NEWDELHI_PRES NEWDELHI_CI NEWDELHI_DP NEWDELHI_POCI REUNION_LAT REUNION_LON REUNION_TYPE REUNION_WIND REUNION_PRES REUNION_TNUM REUNION_CI REUNION_RMW REUNION_R34_NE REUNION_R34_SE REUNION_R34_SW REUNION_R34_NW REUNION_R50_NE REUNION_R50_SE REUNION_R50_SW REUNION_R50_NW REUNION_R64_NE REUNION_R64_SE REUNION_R64_SW REUNION_R64_NW BOM_LAT BOM_LON BOM_TYPE BOM_WIND BOM_PRES BOM_TNUM BOM_CI BOM_RMW BOM_R34_NE BOM_R34_SE BOM_R34_SW BOM_R34_NW BOM_R50_NE BOM_R50_SE BOM_R50_SW BOM_R50_NW BOM_R64_NE BOM_R64_SE BOM_R64_SW BOM_R64_NW BOM_ROCI BOM_POCI BOM_EYE BOM_POS_METHOD BOM_PRES_METHOD NADI_LAT NADI_LON NADI_CAT NADI_WIND NADI_PRES WELLINGTON_LAT WELLINGTON_LON WELLINGTON_WIND WELLINGTON_PRES DS824_LAT DS824_LON DS824_STAGE DS824_WIND DS824_PRES TD9636_LAT TD9636_LON TD9636_STAGE TD9636_WIND TD9636_PRES TD9635_LAT TD9635_LON TD9635_WIND TD9635_PRES TD9635_ROCI NEUMANN_LAT NEUMANN_LON NEUMANN_CLASS NEUMANN_WIND NEUMANN_PRES MLC_LAT MLC_LON MLC_CLASS MLC_WIND MLC_PRES USA_GUST BOM_GUST BOM_GUST_PER REUNION_GUST REUNION_GUST_PER USA_SEAHGT USA_SEARAD_NE USA_SEARAD_SE USA_SEARAD_SW USA_SEARAD_NW STORM_SPEED STORM_DIR
1916232N25080 1916 42 NI BB NOT_NAMED 1916-08-19 00:00:00 TS 24.8000 80.2000 main 0 0 _________O____ -1 24.8000 80.2000 TC 30 0 0
1916232N25080 1916 42 NI BB NOT_NAMED 1916-08-19 03:00:00 TS 24.8000 80.2000 main 0 0 _________PO___ -1 24.8000 80.2000 TC 30 24.8000 80.2000 1 0 0
1916232N25080 1916 42 NI BB NOT_NAMED 1916-08-19 06:00:00 TS 24.7994 80.1937 main 0 0 _________OP___ -1 24.8000 80.2000 TC 30 24.7985 80.1844 1 0 0
1916232N25080 1916 42 NI BB NOT_NAMED 1916-08-19 09:00:00 TS 24.7990 80.1893 main 0 0 _________PP___ -1 24.8000 80.2000 TC 30 24.7976 80.1750 1 0 0
1916232N25080 1916 42 NI BB NOT_NAMED 1916-08-19 12:00:00 TS 24.7989 80.1891 main 0 0 _________OP___ -1 24.8000 80.2000 TC 30 24.7979 80.1781 1 0 0
1916232N25080 1916 42 NI BB NOT_NAMED 1916-08-19 15:00:00 TS 24.8000 80.2000 main 0 0 _________PO___ -1 24.8000 80.2000 TC 30 24.8000 80.2000 1 0 86
1916232N25080 1916 42 NI BB NOT_NAMED 1916-08-19 18:00:00 TS 24.8020 80.2203 main 0 0 _________OP___ -1 24.8000 80.2000 TC 30 24.8039 80.2407 1 0 85
1916232N25080 1916 42 NI BB NOT_NAMED 1916-08-19 21:00:00 TS 24.8036 80.2525 main 0 0 _________PP___ -1 24.8000 80.2300 TC 30 24.8072 80.2751 1 0 0
1916232N25080 1916 42 NI BB NOT_NAMED 1916-08-20 00:00:00 TS 24.8035 80.2360 main 0 0 _________OP___ -1 24.8000 80.2000 TC 30 24.8069 80.2719 1 1 270
1916232N25080 1916 42 NI BB NOT_NAMED 1916-08-20 03:00:00 TS 24.8037 80.1225 main 0 0 _________PO___ -1 24.8075 80.0451 TC 30 24.8000 80.2000 1 3 266
1916232N25080 1916 42 NI BB NOT_NAMED 1916-08-20 06:00:00 TS 24.7851 79.9128 main 0 0 _________OP___ -1 24.8000 79.8000 TC 30 24.7702 80.0257 1 4 261
1916232N25080 1916 42 NI BB NOT_NAMED 1916-08-20 09:00:00 TS 24.7389 79.6485 main 0 0 _________PP___ -1 24.7425 79.5149 TC 30 24.7352 79.7821 1 5 261
1916232N25080 1916 42 NI BB NOT_NAMED 1916-08-20 12:00:00 TS 24.7038 79.3488 main 0 0 _________OP___ -1 24.7000 79.2000 TC 30 24.7076 79.4975 1 5 268
1916232N25080 1916 42 NI BB NOT_NAMED 1916-08-20 15:00:00 TS 24.7175 79.0463 main 0 0 _________PO___ -1 24.7350 78.8926 TC 30 24.7000 79.2000 1 5 276
1916232N25080 1916 42 NI BB NOT_NAMED 1916-08-20 18:00:00 TS 24.7576 78.7923 main 0 0 _________OP___ -1 24.8000 78.6000 TC 30 24.7153 78.9846 1 4 281
1916232N25080 1916 42 NI BB NOT_NAMED 1916-08-20 21:00:00 TS 24.7977 78.5746 main 0 0 _________PP___ -1 24.8420 78.3948 TC 30 24.7534 78.7543 1 5 282
1916232N25080 1916 42 NI BB NOT_NAMED 1916-08-21 00:00:00 TS 24.8574 78.2859 main 0 0 _________OP___ -1 24.9000 78.1000 TC 30 24.8149 78.4719 1 7 282
1916232N25080 1916 42 NI AS NOT_NAMED 1916-08-21 03:00:00 TS 24.9426 77.8262 main 0 0 _________PO___ -1 24.9853 77.5525 TC 30 24.9000 78.1000 1 10 282
1916232N25080 1916 42 NI AS NOT_NAMED 1916-08-21 06:00:00 TS 25.0603 77.2431 main 0 0 _________OP___ -1 25.1000 76.9000 TC 30 25.0206 77.5863 1 11 284
1916232N25080 1916 42 NI AS NOT_NAMED 1916-08-21 09:00:00 TS 25.2081 76.6383 main 0 0 _________PP___ -1 25.2573 76.2927 TC 30 25.1588 76.9839 1 11 284
1916232N25080 1916 42 NI AS NOT_NAMED 1916-08-21 12:00:00 TS 25.3462 76.0197 main 0 0 _________OP___ -1 25.4000 75.7000 TC 30 25.2924 76.3394 1 11 282
1916232N25080 1916 42 NI AS NOT_NAMED 1916-08-21 15:00:00 TS 25.4361 75.4212 main 0 0 _________PO___ -1 25.4722 75.1423 TC 30 25.4000 75.7000 1 10 277
1916232N25080 1916 42 NI AS NOT_NAMED 1916-08-21 18:00:00 TS 25.4808 74.8876 main 0 0 _________OP___ -1 25.5000 74.6000 TC 30 25.4664 75.1033 1 10 274
1916232N25080 1916 42 NI AS NOT_NAMED 1916-08-21 21:00:00 TS 25.5008 74.3489 main 0 0 _________PP___ -1 25.5055 74.0525 TC 30 25.4977 74.5465 1 9 271
1916232N25080 1916 42 NI AS NOT_NAMED 1916-08-22 00:00:00 TS 25.5034 73.8443 main 0 0 _________OP___ -1 25.5000 73.5000 TC 30 25.5052 74.0165 1 8 270
1916232N25080 1916 42 NI AS NOT_NAMED 1916-08-22 03:00:00 NR 25.5000 73.5000 main 0 __________O___ -1 TC 25.5000 73.5000 1 6 269

About IBTrACS Database

This database is a web-friendly format of International Best Track Archive for Climate Stewardship (IBTrACS), a global best track data archive curated by NOAA dating back to 1842.

Updated: 2021-10-21